createdAt,value
2022-08-24T00:01:16.444Z,19.65
2022-08-24T00:03:44.082Z,19.62
2022-08-24T00:06:12.349Z,19.56
2022-08-24T00:08:39.516Z,19.49
2022-08-24T00:11:07.388Z,19.43
2022-08-24T00:13:38.480Z,19.40
2022-08-24T00:16:07.412Z,19.37
2022-08-24T00:18:34.497Z,19.33
2022-08-24T00:21:02.215Z,19.27
2022-08-24T00:23:29.544Z,19.28
2022-08-24T00:25:56.935Z,19.24
2022-08-24T00:28:23.840Z,19.27
2022-08-24T00:30:50.966Z,19.18
2022-08-24T00:33:17.962Z,19.11
2022-08-24T00:35:45.433Z,19.09
2022-08-24T00:38:15.284Z,19.05
2022-08-24T00:40:43.591Z,18.99
2022-08-24T00:43:11.232Z,18.92
2022-08-24T00:45:41.829Z,18.97
2022-08-24T00:48:12.340Z,18.96
2022-08-24T00:50:43.813Z,18.95
2022-08-24T00:53:12.692Z,18.89
2022-08-24T00:55:42.168Z,18.89
2022-08-24T00:58:17.819Z,18.83
2022-08-24T01:00:49.339Z,18.74
2022-08-24T01:03:16.297Z,18.70
2022-08-24T01:05:44.376Z,18.65
2022-08-24T01:08:16.243Z,18.60
2022-08-24T01:10:45.001Z,18.57
2022-08-24T01:13:12.168Z,18.53
2022-08-24T01:15:40.708Z,18.51
2022-08-24T01:18:26.771Z,18.55
2022-08-24T01:20:58.672Z,18.51
2022-08-24T01:23:30.175Z,18.42
2022-08-24T01:26:04.412Z,18.36
2022-08-24T01:28:31.415Z,18.34
2022-08-24T01:31:00.214Z,18.32
2022-08-24T01:33:28.552Z,18.29
2022-08-24T01:35:58.451Z,18.28
2022-08-24T01:38:25.436Z,18.27
2022-08-24T01:40:53.898Z,18.21
2022-08-24T01:43:21.879Z,18.19
2022-08-24T01:45:49.171Z,18.20
2022-08-24T01:48:22.691Z,18.25
2022-08-24T01:50:52.844Z,18.25
2022-08-24T01:53:21.881Z,18.21
2022-08-24T01:55:49.103Z,18.21
2022-08-24T01:58:16.829Z,18.21
2022-08-24T02:00:43.767Z,18.18
2022-08-24T02:03:10.966Z,18.17
2022-08-24T02:05:41.549Z,18.16
2022-08-24T02:08:12.936Z,18.21
2022-08-24T02:10:39.813Z,18.19
2022-08-24T02:13:07.061Z,18.18
2022-08-24T02:15:38.234Z,18.18
2022-08-24T02:18:05.260Z,18.21
2022-08-24T02:20:32.362Z,18.21
2022-08-24T02:22:59.365Z,18.34
2022-08-24T02:25:27.684Z,18.40
2022-08-24T02:27:54.537Z,18.35
2022-08-24T02:30:21.650Z,18.34
2022-08-24T02:32:48.623Z,18.31
2022-08-24T02:35:15.849Z,18.30
2022-08-24T02:37:45.932Z,18.38
2022-08-24T02:40:14.891Z,18.45
2022-08-24T02:42:45.567Z,18.56
2022-08-24T02:45:12.648Z,18.61
2022-08-24T02:47:39.680Z,18.58
2022-08-24T02:50:08.632Z,18.54
2022-08-24T02:52:36.661Z,18.49
2022-08-24T02:55:04.145Z,18.55
2022-08-24T02:57:31.260Z,18.65
2022-08-24T02:59:58.380Z,18.76
2022-08-24T03:02:25.378Z,18.83
2022-08-24T03:04:53.431Z,18.96
2022-08-24T03:07:20.304Z,19.07
2022-08-24T03:09:47.218Z,19.20
2022-08-24T03:12:14.237Z,19.33
2022-08-24T03:14:41.720Z,19.39
2022-08-24T03:17:08.642Z,19.45
2022-08-24T03:19:35.723Z,19.57
2022-08-24T03:22:02.659Z,19.62
2022-08-24T03:24:29.953Z,19.69
2022-08-24T03:26:56.892Z,19.79
2022-08-24T03:29:26.648Z,19.87
2022-08-24T03:31:53.657Z,19.97
2022-08-24T03:34:21.090Z,20.03
2022-08-24T03:36:48.494Z,20.07
2022-08-24T03:39:16.432Z,20.10
2022-08-24T03:41:43.520Z,20.16
2022-08-24T03:44:11.643Z,20.20
2022-08-24T03:46:38.819Z,20.23
2022-08-24T03:49:08.391Z,20.27
2022-08-24T03:51:36.518Z,20.35
2022-08-24T03:54:05.808Z,20.42
2022-08-24T03:56:32.874Z,20.49
2022-08-24T03:59:00.764Z,20.58
2022-08-24T04:01:31.004Z,20.66
2022-08-24T04:04:00.628Z,20.76
2022-08-24T04:06:31.675Z,20.85
2022-08-24T04:11:43.903Z,21.04
2022-08-24T04:14:22.318Z,21.16
2022-08-24T04:17:04.672Z,21.32
2022-08-24T04:19:36.685Z,21.37
2022-08-24T04:22:04.017Z,21.45
2022-08-24T04:24:31.404Z,21.52
2022-08-24T04:26:58.265Z,21.58
2022-08-24T04:29:26.273Z,21.66
2022-08-24T04:31:53.740Z,21.72
2022-08-24T04:34:21.967Z,21.84
2022-08-24T04:36:50.054Z,21.93
2022-08-24T04:39:20.413Z,22.05
2022-08-24T04:41:47.540Z,22.14
2022-08-24T04:44:18.028Z,22.25
2022-08-24T04:46:45.273Z,22.33
2022-08-24T04:49:12.179Z,22.39
2022-08-24T04:51:39.255Z,22.49
2022-08-24T04:54:08.419Z,22.59
2022-08-24T04:56:35.880Z,22.65
2022-08-24T04:59:04.855Z,22.69
2022-08-24T05:01:33.987Z,22.67
2022-08-24T05:04:03.832Z,22.71
2022-08-24T05:06:31.176Z,22.69
2022-08-24T05:08:58.420Z,22.72
2022-08-24T05:11:29.192Z,22.67
2022-08-24T05:13:56.712Z,22.71
2022-08-24T05:16:27.332Z,22.69
2022-08-24T05:18:55.006Z,22.62
2022-08-24T05:21:23.084Z,22.50
2022-08-24T05:23:51.039Z,22.47
2022-08-24T05:26:25.135Z,22.56
2022-08-24T05:28:56.259Z,22.69
2022-08-24T05:31:26.026Z,22.80
2022-08-24T05:33:53.095Z,22.86
2022-08-24T05:36:28.251Z,22.94
2022-08-24T05:38:57.222Z,23.04
2022-08-24T05:41:24.980Z,23.13
2022-08-24T05:43:59.626Z,23.21
2022-08-24T05:46:26.958Z,23.38
2022-08-24T05:48:55.090Z,23.55
2022-08-24T05:51:29.916Z,23.70
2022-08-24T05:54:04.532Z,23.86
2022-08-24T05:56:42.479Z,23.98
2022-08-24T05:59:09.692Z,24.16
2022-08-24T06:01:36.941Z,24.23
2022-08-24T06:04:04.189Z,24.33
2022-08-24T06:06:31.826Z,24.49
2022-08-24T06:09:00.006Z,24.52
2022-08-24T06:11:30.183Z,24.56
2022-08-24T06:14:00.759Z,24.69
2022-08-24T06:16:30.418Z,24.85
2022-08-24T06:18:57.907Z,24.98
2022-08-24T06:21:28.670Z,25.13
2022-08-24T06:23:57.684Z,25.15
2022-08-24T06:26:43.602Z,25.19
2022-08-24T06:29:16.770Z,25.29
2022-08-24T06:31:46.518Z,25.33
2022-08-24T06:34:14.833Z,25.35
2022-08-24T06:36:42.916Z,25.42
2022-08-24T06:39:12.780Z,25.59
2022-08-24T06:41:44.534Z,25.69
2022-08-24T06:44:16.925Z,25.71
2022-08-24T06:46:50.194Z,25.72
2022-08-24T06:49:17.948Z,25.79
2022-08-24T06:51:50.400Z,25.97
2022-08-24T06:54:21.103Z,26.02
2022-08-24T06:56:48.953Z,26.06
2022-08-24T06:59:16.309Z,26.19
2022-08-24T07:01:43.346Z,26.24
2022-08-24T07:04:10.732Z,26.27
2022-08-24T07:07:09.380Z,26.18
2022-08-24T07:09:41.895Z,26.29
2022-08-24T07:12:08.977Z,26.41
2022-08-24T07:14:37.009Z,26.38
2022-08-24T07:17:03.907Z,26.38
2022-08-24T07:19:32.140Z,26.55
2022-08-24T07:22:00.153Z,26.71
2022-08-24T07:24:27.624Z,26.84
2022-08-24T07:26:55.339Z,26.96
2022-08-24T07:29:46.955Z,27.11
2022-08-24T07:32:10.378Z,27.35
2022-08-24T07:34:40.546Z,27.58
2022-08-24T07:37:08.443Z,27.64
2022-08-24T07:39:38.840Z,27.74
2022-08-24T07:42:13.327Z,27.80
2022-08-24T07:44:42.266Z,27.72
2022-08-24T07:47:27.538Z,27.84
2022-08-24T07:49:56.832Z,27.96
2022-08-24T07:52:23.902Z,28.04
2022-08-24T07:54:50.874Z,28.20
2022-08-24T07:57:18.811Z,28.47
2022-08-24T07:59:47.773Z,28.86
2022-08-24T08:02:15.116Z,29.06
2022-08-24T08:04:47.685Z,28.90
2022-08-24T08:07:15.305Z,29.02
2022-08-24T08:09:42.879Z,29.17
2022-08-24T08:12:13.156Z,29.35
2022-08-24T08:14:53.688Z,29.49
2022-08-24T08:17:20.677Z,29.74
2022-08-24T08:19:47.653Z,29.94
2022-08-24T08:22:33.838Z,30.13
2022-08-24T08:25:19.420Z,30.54
2022-08-24T08:27:50.077Z,30.79
2022-08-24T08:30:17.519Z,30.94
2022-08-24T08:32:44.788Z,31.15
2022-08-24T08:35:12.013Z,31.54
2022-08-24T08:37:40.045Z,31.76
2022-08-24T08:40:09.465Z,31.90
2022-08-24T08:42:56.857Z,32.19
2022-08-24T08:45:32.272Z,32.21
2022-08-24T08:48:49.277Z,32.46
2022-08-24T08:51:36.839Z,32.57
2022-08-24T08:54:14.521Z,32.58
2022-08-24T08:56:45.129Z,32.67
2022-08-24T08:59:30.957Z,33.02
2022-08-24T09:02:14.642Z,33.34
2022-08-24T09:05:12.223Z,33.35
2022-08-24T09:07:39.168Z,33.72
2022-08-24T09:10:20.958Z,34.21
2022-08-24T09:13:07.238Z,33.94
2022-08-24T09:15:56.020Z,34.15
2022-08-24T09:18:26.235Z,34.08
2022-08-24T09:21:23.668Z,34.07
2022-08-24T09:24:07.728Z,33.98
2022-08-24T09:26:39.794Z,33.58
2022-08-24T09:29:11.087Z,33.87
2022-08-24T09:31:43.522Z,33.93
2022-08-24T09:34:25.612Z,34.30
2022-08-24T09:40:06.708Z,34.96
2022-08-24T09:42:49.519Z,35.20
2022-08-24T09:45:35.279Z,35.36
2022-08-24T09:48:15.681Z,35.80
2022-08-24T09:50:50.341Z,35.83
2022-08-24T09:53:24.870Z,35.90
2022-08-24T09:56:11.865Z,35.93
2022-08-24T09:58:51.068Z,35.64
2022-08-24T10:01:40.977Z,35.37
2022-08-24T10:04:19.759Z,35.52
2022-08-24T10:06:50.257Z,36.26
2022-08-24T10:09:25.877Z,36.35
2022-08-24T10:11:59.206Z,36.72
2022-08-24T10:14:32.329Z,36.91
2022-08-24T10:17:23.773Z,36.71
2022-08-24T10:19:53.764Z,36.70
2022-08-24T10:22:26.551Z,36.57
2022-08-24T10:25:12.096Z,37.24
2022-08-24T10:27:38.937Z,37.26
2022-08-24T10:30:08.845Z,37.43
2022-08-24T10:32:48.868Z,37.65
2022-08-24T10:35:26.108Z,37.26
2022-08-24T10:38:21.290Z,37.63
2022-08-24T10:41:18.661Z,37.65
2022-08-24T10:44:00.716Z,37.51
2022-08-24T10:46:33.590Z,37.76
2022-08-24T10:49:19.305Z,38.09
2022-08-24T10:51:55.572Z,37.95
2022-08-24T10:54:23.358Z,37.74
2022-08-24T10:56:59.367Z,37.58
2022-08-24T10:59:31.860Z,37.90
2022-08-24T11:02:02.109Z,38.08
2022-08-24T11:04:36.754Z,37.99
2022-08-24T11:07:18.104Z,38.56
2022-08-24T11:09:56.636Z,38.67
2022-08-24T11:12:32.793Z,38.63
2022-08-24T11:15:01.312Z,38.70
2022-08-24T11:17:32.930Z,38.93
2022-08-24T11:20:02.477Z,39.39
2022-08-24T11:22:44.393Z,39.24
2022-08-24T11:25:14.895Z,39.31
2022-08-24T11:27:42.736Z,38.70
2022-08-24T11:30:36.521Z,39.00
2022-08-24T11:33:09.632Z,39.54
2022-08-24T11:35:43.050Z,39.44
2022-08-24T11:38:26.175Z,39.81
2022-08-24T11:40:55.153Z,40.27
2022-08-24T11:43:45.139Z,40.44
2022-08-24T11:46:34.567Z,40.20
2022-08-24T11:49:11.037Z,39.63
2022-08-24T11:51:52.608Z,39.86
2022-08-24T11:54:34.465Z,39.71
2022-08-24T11:57:04.246Z,39.40
2022-08-24T11:59:35.693Z,39.26
2022-08-24T12:02:06.694Z,39.36
2022-08-24T12:04:33.621Z,38.72
2022-08-24T12:07:19.384Z,38.65
2022-08-24T12:09:49.503Z,38.88
2022-08-24T12:12:28.277Z,38.72
2022-08-24T12:15:25.097Z,38.80
2022-08-24T12:18:01.084Z,39.26
2022-08-24T12:20:32.054Z,39.37
2022-08-24T12:23:00.428Z,39.89
2022-08-24T12:25:46.004Z,39.97
2022-08-24T12:28:12.852Z,39.62
2022-08-24T12:30:39.767Z,38.88
2022-08-24T12:33:07.424Z,38.80
2022-08-24T12:35:35.074Z,39.02
2022-08-24T12:38:04.351Z,39.26
2022-08-24T12:40:34.321Z,39.07
2022-08-24T12:43:01.161Z,39.04
2022-08-24T12:45:28.074Z,38.97
2022-08-24T12:47:58.330Z,38.65
2022-08-24T12:50:34.022Z,39.32
2022-08-24T12:53:19.873Z,39.74
2022-08-24T12:55:52.361Z,39.81
2022-08-24T12:58:53.982Z,39.24
2022-08-24T13:01:23.083Z,39.50
2022-08-24T13:04:05.694Z,40.03
2022-08-24T13:06:44.020Z,41.01
2022-08-24T13:09:15.899Z,41.23
2022-08-24T13:11:43.081Z,40.59
2022-08-24T13:14:18.948Z,38.78
2022-08-24T13:16:51.866Z,37.90
2022-08-24T13:19:32.433Z,38.19
2022-08-24T13:22:13.463Z,38.33
2022-08-24T13:24:41.819Z,38.66
2022-08-24T13:27:11.434Z,39.46
2022-08-24T13:29:53.547Z,39.91
2022-08-24T13:32:46.576Z,40.24
2022-08-24T13:35:35.197Z,40.17
2022-08-24T13:38:21.828Z,39.36
2022-08-24T13:40:49.015Z,37.34
2022-08-24T13:43:33.280Z,36.72
2022-08-24T13:46:15.440Z,36.64
2022-08-24T13:49:04.253Z,36.82
2022-08-24T13:51:34.820Z,38.19
2022-08-24T13:54:20.431Z,39.20
2022-08-24T13:56:58.368Z,38.67
2022-08-24T13:59:44.175Z,39.07
2022-08-24T14:02:26.253Z,39.73
2022-08-24T14:05:07.123Z,39.90
2022-08-24T14:07:49.684Z,40.02
2022-08-24T14:10:37.744Z,39.88
2022-08-24T14:13:20.383Z,39.81
2022-08-24T14:16:11.079Z,39.78
2022-08-24T14:19:09.823Z,40.11
2022-08-24T14:21:39.257Z,40.21
2022-08-24T14:24:16.170Z,40.73
2022-08-24T14:26:52.327Z,41.42
2022-08-24T14:29:36.379Z,42.09
2022-08-24T14:32:12.110Z,42.22
2022-08-24T14:34:50.244Z,42.55
2022-08-24T14:37:22.629Z,42.51
2022-08-24T14:39:54.943Z,42.14
2022-08-24T14:42:21.916Z,41.45
2022-08-24T14:44:56.002Z,41.25
2022-08-24T14:47:41.090Z,40.40
2022-08-24T14:50:18.572Z,40.58
2022-08-24T14:52:55.008Z,40.43
2022-08-24T14:55:21.983Z,39.88
2022-08-24T14:58:07.731Z,39.58
2022-08-24T15:00:55.124Z,40.07
2022-08-24T15:03:22.023Z,40.64
2022-08-24T15:06:26.207Z,40.53
2022-08-24T15:08:55.893Z,40.07
2022-08-24T15:11:24.706Z,40.56
2022-08-24T15:13:55.683Z,40.78
2022-08-24T15:16:26.098Z,40.63
2022-08-24T15:18:59.018Z,40.66
2022-08-24T15:21:47.613Z,40.55
2022-08-24T15:24:33.187Z,37.97
2022-08-24T15:27:00.918Z,36.00
2022-08-24T15:29:30.500Z,34.92
2022-08-24T15:31:59.298Z,34.45
2022-08-24T15:34:36.631Z,33.71
2022-08-24T15:37:05.961Z,33.46
2022-08-24T15:39:33.523Z,33.15
2022-08-24T15:42:00.424Z,33.03
2022-08-24T15:44:28.940Z,32.64
2022-08-24T15:46:57.361Z,32.31
2022-08-24T15:49:33.902Z,32.02
2022-08-24T15:52:14.775Z,31.76
2022-08-24T15:54:42.309Z,31.46
2022-08-24T15:57:18.424Z,31.13
2022-08-24T15:59:50.694Z,30.81
2022-08-24T16:02:29.036Z,30.64
2022-08-24T16:05:01.979Z,30.39
2022-08-24T16:07:34.829Z,30.23
2022-08-24T16:10:11.348Z,30.11
2022-08-24T16:12:38.516Z,29.97
2022-08-24T16:15:11.705Z,29.76
2022-08-24T16:17:50.975Z,29.55
2022-08-24T16:20:21.466Z,29.34
2022-08-24T16:22:57.047Z,29.17
2022-08-24T16:25:31.971Z,28.99
2022-08-24T16:28:02.618Z,28.81
2022-08-24T16:30:41.338Z,28.59
2022-08-24T16:33:14.156Z,28.39
2022-08-24T16:35:41.241Z,28.31
2022-08-24T16:38:10.559Z,28.03
2022-08-24T16:43:18.791Z,27.67
2022-08-24T16:45:49.115Z,27.52
2022-08-24T16:48:20.932Z,27.38
2022-08-24T16:50:50.969Z,27.20
2022-08-24T16:53:18.322Z,27.02
2022-08-24T16:55:55.622Z,26.97
2022-08-24T16:58:33.211Z,26.89
2022-08-24T17:01:00.977Z,26.75
2022-08-24T17:03:33.200Z,26.58
2022-08-24T17:06:06.790Z,26.46
2022-08-24T17:08:34.453Z,26.34
2022-08-24T17:11:05.234Z,26.17
2022-08-24T17:13:49.736Z,25.99
2022-08-24T17:16:17.560Z,25.86
2022-08-24T17:18:47.888Z,25.76
2022-08-24T17:21:42.822Z,25.62
2022-08-24T17:24:10.138Z,25.47
2022-08-24T17:26:37.415Z,25.39
2022-08-24T17:29:19.178Z,25.30
2022-08-24T17:31:47.321Z,25.15
2022-08-24T17:34:15.710Z,25.12
2022-08-24T17:36:53.142Z,25.03
2022-08-24T17:39:20.327Z,24.93
2022-08-24T17:41:47.477Z,24.85
2022-08-24T17:44:15.683Z,24.70
2022-08-24T17:46:42.722Z,24.59
2022-08-24T17:49:11.662Z,24.59
2022-08-24T17:51:41.864Z,24.55
2022-08-24T17:54:09.828Z,24.44
2022-08-24T17:56:41.312Z,24.32
2022-08-24T17:59:23.788Z,24.26
2022-08-24T18:01:54.541Z,24.18
2022-08-24T18:04:22.777Z,24.16
2022-08-24T18:06:52.605Z,24.10
2022-08-24T18:09:25.923Z,24.08
2022-08-24T18:11:52.999Z,23.94
2022-08-24T18:14:20.226Z,23.85
2022-08-24T18:17:15.455Z,23.88
2022-08-24T18:19:52.514Z,23.92
2022-08-24T18:22:45.087Z,23.79
2022-08-24T18:25:13.305Z,23.66
2022-08-24T18:27:42.600Z,23.65
2022-08-24T18:34:04.859Z,23.42
2022-08-24T18:36:40.159Z,23.35
2022-08-24T18:39:12.518Z,23.30
2022-08-24T18:41:49.262Z,23.30
2022-08-24T18:44:20.710Z,23.24
2022-08-24T18:46:49.129Z,23.16
2022-08-24T18:49:21.569Z,23.05
2022-08-24T18:51:49.300Z,23.05
2022-08-24T18:54:18.579Z,23.04
2022-08-24T18:56:45.781Z,23.01
2022-08-24T18:59:14.697Z,22.98
2022-08-24T19:02:02.625Z,22.93
2022-08-24T19:04:33.421Z,22.87
2022-08-24T19:07:09.378Z,22.87
2022-08-24T19:09:37.101Z,22.81
2022-08-24T19:12:05.963Z,22.76
2022-08-24T19:14:38.561Z,22.65
2022-08-24T19:17:06.812Z,22.57
2022-08-24T19:19:33.879Z,22.52
2022-08-24T19:22:02.712Z,22.43
2022-08-24T19:24:30.144Z,22.39
2022-08-24T19:27:06.874Z,22.35
2022-08-24T19:29:54.669Z,22.31
2022-08-24T19:32:25.434Z,22.23
2022-08-24T19:34:52.801Z,22.16
2022-08-24T19:37:26.096Z,22.14
2022-08-24T19:39:53.347Z,22.10
2022-08-24T19:42:20.392Z,22.05
2022-08-24T19:45:05.957Z,21.98
2022-08-24T19:47:34.637Z,21.94
2022-08-24T19:50:10.666Z,21.92
2022-08-24T19:52:37.908Z,21.82
2022-08-24T19:55:05.892Z,21.75
2022-08-24T19:57:33.482Z,21.68
2022-08-24T20:00:04.456Z,21.61
2022-08-24T20:02:33.137Z,21.54
2022-08-24T20:05:06.443Z,21.52
2022-08-24T20:12:17.609Z,21.52
2022-08-24T20:14:47.254Z,21.47
2022-08-24T20:17:15.729Z,21.43
2022-08-24T20:19:44.571Z,21.42
2022-08-24T20:22:15.754Z,21.41
2022-08-24T20:24:43.023Z,21.37
2022-08-24T20:27:17.907Z,21.30
2022-08-24T20:29:51.506Z,21.27
2022-08-24T20:32:18.563Z,21.23
2022-08-24T20:34:45.808Z,21.13
2022-08-24T20:37:20.344Z,21.07
2022-08-24T20:39:49.916Z,21.06
2022-08-24T20:42:21.134Z,21.07
2022-08-24T20:44:48.639Z,21.05
2022-08-24T20:47:16.097Z,21.03
2022-08-24T20:49:43.263Z,21.00
2022-08-24T20:52:10.229Z,20.97
2022-08-24T20:54:39.641Z,20.99
2022-08-24T20:57:12.485Z,21.03
2022-08-24T20:59:39.623Z,20.97
2022-08-24T21:02:06.488Z,20.92
2022-08-24T21:04:33.407Z,20.93
2022-08-24T21:07:00.275Z,20.90
2022-08-24T21:09:27.231Z,20.78
2022-08-24T21:11:54.759Z,20.73
2022-08-24T21:14:21.672Z,20.79
2022-08-24T21:16:48.635Z,20.75
2022-08-24T21:19:17.942Z,20.69
2022-08-24T21:21:46.890Z,20.71
2022-08-24T21:24:14.340Z,20.61
2022-08-24T21:26:41.272Z,20.60
2022-08-24T21:29:08.735Z,20.69
2022-08-24T21:31:35.943Z,20.71
2022-08-24T21:34:21.484Z,20.67
2022-08-24T21:39:30.279Z,20.55
2022-08-24T21:41:57.415Z,20.52
2022-08-24T21:44:24.629Z,20.52
2022-08-24T21:46:52.110Z,20.60
2022-08-24T21:49:20.326Z,20.62
2022-08-24T21:51:47.130Z,20.60
2022-08-24T21:54:15.307Z,20.52
2022-08-24T21:56:42.186Z,20.50
2022-08-24T21:59:09.096Z,20.47
2022-08-24T22:01:36.160Z,20.37
2022-08-24T22:04:03.281Z,20.25
2022-08-24T22:06:31.742Z,20.17
2022-08-24T22:08:59.218Z,20.06
2022-08-24T22:11:26.164Z,20.11
2022-08-24T22:13:53.673Z,20.05
2022-08-24T22:16:21.358Z,20.06
2022-08-24T22:18:48.477Z,20.03
2022-08-24T22:21:17.756Z,19.89
2022-08-24T22:23:44.703Z,19.78
2022-08-24T22:26:11.971Z,19.75
2022-08-24T22:28:41.103Z,19.69
2022-08-24T22:31:15.018Z,19.63
2022-08-24T22:33:41.963Z,19.57
2022-08-24T22:36:12.132Z,19.58
2022-08-24T22:38:39.544Z,19.54
2022-08-24T22:41:06.825Z,19.52
2022-08-24T22:43:52.372Z,19.46
2022-08-24T22:46:19.652Z,19.41
2022-08-24T22:48:46.736Z,19.40
2022-08-24T22:51:13.606Z,19.37
2022-08-24T22:53:40.673Z,19.30
2022-08-24T22:56:14.561Z,19.28
2022-08-24T22:58:42.013Z,19.27
2022-08-24T23:01:13.734Z,19.26
2022-08-24T23:03:40.763Z,19.29
2022-08-24T23:06:07.909Z,19.28
2022-08-24T23:08:35.287Z,19.27
2022-08-24T23:11:02.336Z,19.31
2022-08-24T23:13:29.187Z,19.39
2022-08-24T23:15:56.096Z,19.38
2022-08-24T23:18:41.685Z,19.39
2022-08-24T23:21:15.150Z,19.37
2022-08-24T23:23:43.014Z,19.32
2022-08-24T23:26:09.872Z,19.32
2022-08-24T23:28:57.162Z,19.30
2022-08-24T23:31:24.142Z,19.18
2022-08-24T23:33:51.215Z,19.13
2022-08-24T23:36:21.174Z,19.19
2022-08-24T23:38:48.497Z,19.22
2022-08-24T23:41:16.451Z,19.24
2022-08-24T23:43:43.589Z,19.32
2022-08-24T23:46:10.686Z,19.32
2022-08-24T23:48:37.760Z,19.36
2022-08-24T23:51:08.667Z,19.39
2022-08-24T23:53:35.910Z,19.34
2022-08-24T23:56:07.255Z,19.34
2022-08-24T23:58:34.130Z,19.33
